NO-0001 weather

Haga Airfield
Akershus, Norway

Public forecast

Using degrees Celsius for public forecast. Weather courtesy of forecast.io.

Closest aviation weather report (METAR) to Haga Airfield

Closest report is Oslo Gardermoen Airport, 13.4 nm (24.7 km) NW. Retrieved 2020/05/30 08:50 UTC (17 minutes ago):

ENGM 300850Z 01007KT 280V060 CAVOK 17/05 Q1032 NOSIG

Closest aviation forecast (TAF) to Haga Airfield

Closest forecast is Oslo Gardermoen Airport, 13.4 nm (24.7 km) NW. Retrieved 2020/05/30 06:59 UTC (2 hours ago):

TAF ENGM 300500Z 3006/3106 02007KT CAVOK